Barcelona Knutsen — EACW — position and weather

sailwx.info

Track history (hours):
 
Tides and Currents Weather Stations Pressure Air Temp Water Temp Dewpoint Dewpoint Depression Visibility Wind Speed Wind Dir Waves Ship Positions

Barcelona Knutsen

Last reported at 2017-Mar-24 10:08 UTC. Time now 2017-Mar-28 19:48 UTC.
Position N 01°55' E 102°20'.

Length 290 m; draft 9.5 m.

Type: Tanker. MMSI: 224436000.

Date/timePositionNaut miles runAvg speedWind from/ knotsBaromVisibWave heightAir tempDewpointWater temp
2017-Mar-24 10:08N 01°55' E 102°20'915.5
2017-Mar-24 09:32N 01°50' E 102°29'1616.0
2017-Mar-24 08:34N 01°43' E 102°43'1816.5
2017-Mar-24 07:29N 01°34' E 102°58'3215.6
2017-Mar-24 05:26N 01°15' E 103°24'1113.0
2017-Mar-24 04:33N 01°12' E 103°35'9 8.8
2017-Mar-24 03:33N 01°10' E 103°43'0 0.1
2017-Mar-24 02:33N 01°10' E 103°43'0 0.0
2017-Mar-24 01:30N 01°10' E 103°43'0 0.3
2017-Mar-24 00:33N 01°10' E 103°43'0 0.2
2017-Mar-23 23:33N 01°10' E 103°43'0 0.2
2017-Mar-23 22:33N 01°10' E 103°43'0 0.2
2017-Mar-23 21:33N 01°10' E 103°43'0 0.0
2017-Mar-23 20:33N 01°10' E 103°43'0 0.0
2017-Mar-23 19:33N 01°10' E 103°43'0 0.0
2017-Mar-23 18:33N 01°10' E 103°43'0 0.0
2017-Mar-23 17:30N 01°10' E 103°43'0 0.0
2017-Mar-23 16:33N 01°10' E 103°43'0 0.0
2017-Mar-23 15:30N 01°10' E 103°43'0 0.0
2017-Mar-23 14:30N 01°10' E 103°43'0 0.0
2017-Mar-23 13:33N 01°10' E 103°43'0 0.0
2017-Mar-23 12:33N 01°10' E 103°43'0 0.0
2017-Mar-23 11:27N 01°10' E 103°43'0 0.0
2017-Mar-23 10:30N 01°10' E 103°43'0 0.0
2017-Mar-23 09:33N 01°10' E 103°43'0 0.1
2017-Mar-23 08:15N 01°10' E 103°43'0 0.2
2017-Mar-23 07:30N 01°10' E 103°43'0 0.1
2017-Mar-23 06:30N 01°10' E 103°43'0 0.0
2017-Mar-23 05:33N 01°10' E 103°43'0 0.0
2017-Mar-23 04:33N 01°10' E 103°43'1 0.7
2017-Mar-23 03:33N 01°09' E 103°44'5 5.2
2017-Mar-23 02:33N 01°11' E 103°49'8 7.7
2017-Mar-23 01:33N 01°14' E 103°56'8 8.2
2017-Mar-23 00:32N 01°16' E 104°04'18 8.1
2017-Mar-22 22:21N 01°20' E 104°21'  
Track history (hours):
 
Tides and Currents Weather Stations Pressure Air Temp Water Temp Dewpoint Dewpoint Depression Visibility Wind Speed Wind Dir Waves Ship Positions

Barcelona Knutsen

Last reported at 2017-Mar-24 10:08 UTC. Time now 2017-Mar-28 19:48 UTC.
Position N 01°55' E 102°20'.

Length 290 m; draft 9.5 m.

Type: Tanker. MMSI: 224436000.

Date/timePositionNaut miles runAvg speedWind from/ knotsBaromVisibWave heightAir tempDewpointWater temp
2017-Mar-24 10:08N 01°55' E 102°20'915.5
2017-Mar-24 09:32N 01°50' E 102°29'1616.0
2017-Mar-24 08:34N 01°43' E 102°43'1816.5
2017-Mar-24 07:29N 01°34' E 102°58'3215.6
2017-Mar-24 05:26N 01°15' E 103°24'1113.0
2017-Mar-24 04:33N 01°12' E 103°35'9 8.8
2017-Mar-24 03:33N 01°10' E 103°43'0 0.1
2017-Mar-24 02:33N 01°10' E 103°43'0 0.0
2017-Mar-24 01:30N 01°10' E 103°43'0 0.3
2017-Mar-24 00:33N 01°10' E 103°43'0 0.2
2017-Mar-23 23:33N 01°10' E 103°43'0 0.2
2017-Mar-23 22:33N 01°10' E 103°43'0 0.2
2017-Mar-23 21:33N 01°10' E 103°43'0 0.0
2017-Mar-23 20:33N 01°10' E 103°43'0 0.0
2017-Mar-23 19:33N 01°10' E 103°43'0 0.0
2017-Mar-23 18:33N 01°10' E 103°43'0 0.0
2017-Mar-23 17:30N 01°10' E 103°43'0 0.0
2017-Mar-23 16:33N 01°10' E 103°43'0 0.0
2017-Mar-23 15:30N 01°10' E 103°43'0 0.0
2017-Mar-23 14:30N 01°10' E 103°43'0 0.0
2017-Mar-23 13:33N 01°10' E 103°43'0 0.0
2017-Mar-23 12:33N 01°10' E 103°43'0 0.0
2017-Mar-23 11:27N 01°10' E 103°43'0 0.0
2017-Mar-23 10:30N 01°10' E 103°43'0 0.0
2017-Mar-23 09:33N 01°10' E 103°43'0 0.1
2017-Mar-23 08:15N 01°10' E 103°43'0 0.2
2017-Mar-23 07:30N 01°10' E 103°43'0 0.1
2017-Mar-23 06:30N 01°10' E 103°43'0 0.0
2017-Mar-23 05:33N 01°10' E 103°43'0 0.0
2017-Mar-23 04:33N 01°10' E 103°43'1 0.7
2017-Mar-23 03:33N 01°09' E 103°44'5 5.2
2017-Mar-23 02:33N 01°11' E 103°49'8 7.7
2017-Mar-23 01:33N 01°14' E 103°56'8 8.2
2017-Mar-23 00:32N 01°16' E 104°04'18 8.1
2017-Mar-22 22:21N 01°20' E 104°21'  

Dump ship's entire track history